Airfield :
LOGIN :

Register | Disclaimer

   EN    FR    IT 

 










Legend :    VFR   Marginal VFR   IFR   Intensive IFR   Very Intensive IFR
Visi :
Ceiling :
>= 8 km
>= 3000ft
5 to 8 km
1000 to 3000 ft
1500m to 5 km
500 to 1000 ft
800 to 1500m
200 to 500 ft
< 800m
< 200 ft
Symbols :   Thunderstorms  Fog  Heavy snow  Heavy precipitations  Wind > 20 kt
SIGMETs :     Misc.  Thunderstorms  Icing  Turbulence  Mountain Waves  Volcanic Ashes







- Airport Elevation : 1079 ft


ETIK - Illesheim Air Base

CURRENT METAR :
  • 230556Z AUTO 27004KT 9999 CLR 03/03 A3039 RMK AO2 SLP301 T00300030 10045 20009 55010 $

EXPIRED METARs :
  • 230456Z AUTO 22006KT 9999 CLR 04/04 A3036 RMK AO2 SLP290 T00400040 $
  • 230411Z AUTO 22004KT 9999 CLR 02/02 A3037 RMK AO2 SLP295 $
  • 230356Z AUTO 00000KT 6000 BR CLR 02/02 A3038 RMK AO2 SLP296 T00160016 $

TAF TAF ETIK
Valid from the 23 at 05:00 until the 24 at 11:00 UTC


230605Z 2305/2411 27009KT 8000 BR SCT012 BKN040 QNH3034INS
BECMG 2308/2309 25010G15KT 9999 NSW SCT050 BKN150 QNH3015INS
BECMG 2311/2312 25015G25KT 9999 SCT050 BKN150 QNH3014INS
BECMG 2319/2320 27012G18KT 9999 SCT015 BKN030 QNH3005INS
BECMG 2404/2405 27025G35KT 8000 -SHRA SCT008 BKN015 QNH3006INS TX11/2315Z TN00/2306Z
No reported NOTAMs for that airfield.



MET'MAP, your aeronautical weather chart ! - Copyright ORBIFLY December 2007 - Disclaimer

ORBIFLY MET'MAP TEAM :

Programming & Development : Alexandra Zaïnal
Concept & Development : Baudouin d'Aumeries
Co-Development & Prog : Marc-Olivier Méhu
Technical & hardware support : Manuel Goepfert

Contact : metmap@orbifly.com




SOURCES & CREDITS :

   NOAA